Time;durP1;ratioP1;P1;durP2;ratioP2;P2;SDS_P1;SDS_P2;PMS_P1;PMS_P2;Temp;Humidity;BMP_temperature;BMP_pressure;BME280_temperature;BME280_humidity;BME280_pressure;Samples;Min_cycle;Max_cycle;Signal;HPM_P1;HPM_P2
2022/03/01 00:04:26;;;;;;;4.50;3.28;;;;;;;18.99;36.85;98424.91;10534004;28;20052;-55
2022/03/01 00:09:46;;;;;;;5.55;3.72;;;;;;;18.98;36.66;98428.72;10528268;28;20719;-54
2022/03/01 00:15:06;;;;;;;4.93;3.30;;;;;;;18.96;36.91;98422.78;10533754;28;20055;-54
2022/03/01 00:20:25;;;;;;;5.03;3.13;;;;;;;18.95;36.83;98426.56;10550471;28;20555;-55
2022/03/01 00:25:45;;;;;;;4.43;3.10;;;;;;;18.93;36.65;98416.06;10510258;28;20051;-53
2022/03/01 00:31:05;;;;;;;4.47;3.30;;;;;;;18.92;36.68;98419.84;10516172;28;20507;-54
2022/03/01 00:36:24;;;;;;;5.32;3.45;;;;;;;18.91;36.75;98409.31;10536610;28;20060;-54
2022/03/01 00:41:44;;;;;;;4.65;3.38;;;;;;;18.89;36.66;98406.09;10525675;28;20052;-54
2022/03/01 00:47:05;;;;;;;5.85;3.58;;;;;;;18.89;36.46;98398.00;10507428;28;20090;-55
2022/03/01 00:52:24;;;;;;;4.97;3.30;;;;;;;18.87;36.48;98400.16;10509708;28;20094;-55
2022/03/01 00:57:44;;;;;;;4.35;3.25;;;;;;;18.85;36.47;98394.25;10509175;28;20072;-55
2022/03/01 01:03:04;;;;;;;5.90;3.10;;;;;;;18.83;36.51;98397.22;10532341;28;20059;-55
2022/03/01 01:08:23;;;;;;;4.13;2.95;;;;;;;18.82;36.48;98389.38;10536452;28;20067;-51
2022/03/01 01:13:42;;;;;;;3.90;2.88;;;;;;;18.80;36.42;98403.19;10527618;28;20510;-53
2022/03/01 01:19:02;;;;;;;4.35;3.45;;;;;;;18.80;36.44;98391.56;10510438;28;20036;-55
2022/03/01 01:24:21;;;;;;;4.10;2.92;;;;;;;18.76;36.57;98397.50;10517176;28;20078;-55
2022/03/01 01:29:41;;;;;;;4.20;3.00;;;;;;;18.76;36.42;98397.50;10516508;28;20529;-55
2022/03/01 01:35:01;;;;;;;3.85;3.00;;;;;;;18.74;36.40;98396.97;10506819;28;20424;-55
2022/03/01 01:40:23;;;;;;;3.38;2.95;;;;;;;18.73;36.47;98387.25;10527702;28;20052;-55
2022/03/01 01:45:43;;;;;;;3.58;2.90;;;;;;;18.71;36.24;98389.44;10512556;28;20056;-55
2022/03/01 01:51:02;;;;;;;3.53;2.85;;;;;;;18.70;36.41;98387.84;10518215;28;20052;-55
2022/03/01 01:56:22;;;;;;;4.15;2.80;;;;;;;18.69;36.21;98385.41;10507047;28;20064;-54
2022/03/01 02:01:42;;;;;;;4.28;3.13;;;;;;;18.67;36.22;98380.28;10510396;28;20048;-54
2022/03/01 02:07:01;;;;;;;4.07;3.05;;;;;;;18.66;36.26;98380.56;10526206;28;20040;-54
2022/03/01 02:12:21;;;;;;;3.35;2.80;;;;;;;18.65;36.33;98377.06;10524346;28;20056;-55
2022/03/01 02:17:42;;;;;;;3.85;2.70;;;;;;;18.63;36.25;98375.72;10525114;28;20036;-55
2022/03/01 02:23:01;;;;;;;3.40;2.90;;;;;;;18.62;36.32;98369.53;10527114;28;20152;-55
2022/03/01 02:28:21;;;;;;;3.85;2.67;;;;;;;18.61;36.34;98364.41;10519201;28;20056;-55
2022/03/01 02:33:41;;;;;;;2.80;2.50;;;;;;;18.60;36.17;98362.78;10516415;28;20048;-54
2022/03/01 02:39:01;;;;;;;4.43;2.90;;;;;;;18.58;36.22;98355.78;10521178;28;20067;-55
2022/03/01 02:44:21;;;;;;;4.45;2.75;;;;;;;18.55;36.02;98342.84;10529341;28;20048;-55
2022/03/01 02:49:40;;;;;;;3.50;2.58;;;;;;;18.55;36.13;98359.03;10512931;28;20098;-55
2022/03/01 02:55:00;;;;;;;3.20;2.53;;;;;;;18.54;36.17;98351.22;10515472;28;20059;-55
2022/03/01 03:00:19;;;;;;;3.28;2.60;;;;;;;18.53;36.13;98349.59;10513730;28;20048;-52
2022/03/01 03:05:39;;;;;;;3.40;2.72;;;;;;;18.51;36.18;98355.28;10521089;28;20545;-55
2022/03/01 03:10:58;;;;;;;2.92;2.38;;;;;;;18.50;36.21;98355.56;10531036;28;20067;-54
2022/03/01 03:16:18;;;;;;;3.13;2.42;;;;;;;18.48;36.20;98353.13;10528511;28;20040;-54
2022/03/01 03:21:37;;;;;;;3.05;2.40;;;;;;;18.46;36.04;98359.91;10540027;28;20048;-55
2022/03/01 03:26:56;;;;;;;3.17;2.50;;;;;;;18.44;36.00;98357.47;10523459;28;20060;-55
2022/03/01 03:32:16;;;;;;;3.35;2.50;;;;;;;18.45;35.91;98355.59;10514718;28;20055;-55
2022/03/01 03:37:35;;;;;;;3.83;2.78;;;;;;;18.42;35.95;98350.75;10530631;28;20113;-55
2022/03/01 03:42:55;;;;;;;3.55;2.63;;;;;;;18.41;35.99;98351.84;10526893;28;20056;-52
2022/03/01 03:48:14;;;;;;;3.00;2.60;;;;;;;18.38;35.97;98354.03;10539667;28;20101;-54
2022/03/01 03:53:34;;;;;;;4.13;2.42;;;;;;;18.38;36.11;98353.19;10539211;28;20047;-55
2022/03/01 03:58:55;;;;;;;2.40;2.13;;;;;;;18.37;36.04;98357.78;10522956;28;20043;-55
2022/03/01 04:04:15;;;;;;;3.53;2.50;;;;;;;18.36;35.88;98355.38;10531731;28;20048;-55
2022/03/01 04:09:34;;;;;;;3.03;2.60;;;;;;;18.33;36.09;98362.13;10526020;28;20040;-55
2022/03/01 04:14:53;;;;;;;2.50;2.30;;;;;;;18.33;35.92;98375.63;10532220;28;20101;-54
2022/03/01 04:20:14;;;;;;;4.85;2.55;;;;;;;18.31;36.05;98363.50;10533927;28;20384;-54
2022/03/01 04:25:33;;;;;;;3.05;2.30;;;;;;;18.29;36.01;98366.47;10516692;28;20079;-55
2022/03/01 04:30:53;;;;;;;2.63;2.35;;;;;;;18.28;36.00;98375.63;10527491;28;20043;-55
2022/03/01 04:36:13;;;;;;;3.40;2.20;;;;;;;18.27;36.01;98362.41;10534136;28;20063;-55
2022/03/01 04:41:32;;;;;;;2.92;2.20;;;;;;;18.26;36.02;98371.59;10531090;28;20078;-55
2022/03/01 04:46:52;;;;;;;2.67;2.20;;;;;;;18.24;35.94;98360.28;10537831;28;20082;-55
2022/03/01 04:52:11;;;;;;;3.17;2.28;;;;;;;18.24;35.99;98368.38;10530735;28;20060;-55
2022/03/01 04:57:30;;;;;;;3.33;2.42;;;;;;;18.24;35.94;98369.19;10520111;28;20048;-54
2022/03/01 05:02:49;;;;;;;3.95;2.42;;;;;;;18.21;35.96;98358.13;10527091;28;20407;-55
2022/03/01 05:08:09;;;;;;;3.08;2.30;;;;;;;18.21;35.83;98369.75;10530858;28;20049;-55
2022/03/01 05:13:28;;;;;;;3.15;2.45;;;;;;;18.21;36.21;98369.75;10527667;28;20109;-55
2022/03/01 05:18:48;;;;;;;2.53;2.20;;;;;;;18.20;36.58;98362.72;10518897;28;20113;-55
2022/03/01 05:24:07;;;;;;;2.55;2.35;;;;;;;18.21;36.58;98368.91;10520988;28;20063;-55
2022/03/01 05:29:27;;;;;;;2.67;2.20;;;;;;;18.21;36.62;98358.97;10529378;28;20063;-56
2022/03/01 05:34:46;;;;;;;;;;;;;;;18.23;36.87;98364.88;10536215;28;20059;-54
2022/03/01 05:40:07;;;;;;;2.83;2.10;;;;;;;18.23;36.86;98356.78;10525697;28;19966;-57
2022/03/01 05:45:27;;;;;;;2.45;2.05;;;;;;;18.25;37.09;98359.19;10527809;28;20114;-57
2022/03/01 05:50:47;;;;;;;2.60;1.98;;;;;;;18.28;37.25;98358.66;10511519;28;20055;-56
2022/03/01 05:56:07;;;;;;;2.58;2.13;;;;;;;18.29;37.51;98365.69;10509188;28;20035;-55
2022/03/01 06:01:26;;;;;;;2.63;2.03;;;;;;;18.31;37.67;98364.31;10514496;28;20051;-56
2022/03/01 06:06:45;;;;;;;4.15;2.28;;;;;;;18.35;37.61;98375.34;10504758;28;20061;-56
2022/03/01 06:12:05;;;;;;;3.28;1.90;;;;;;;18.36;37.48;98366.97;10514797;28;20443;-57
2022/03/01 06:17:24;;;;;;;19.10;4.10;;;;;;;18.39;37.77;98381.81;10515293;28;20064;-57
2022/03/01 06:22:44;;;;;;;12.20;3.15;;;;;;;18.44;37.67;98372.88;10499190;28;20044;-57
2022/03/01 06:28:04;;;;;;;11.02;3.58;;;;;;;18.47;37.64;98366.91;10483765;28;20056;-57
2022/03/01 06:33:24;;;;;;;13.63;3.85;;;;;;;18.52;37.64;98380.38;10524218;28;20055;-57
2022/03/01 06:38:43;;;;;;;10.25;3.67;;;;;;;18.54;37.60;98376.31;10515902;28;20064;-57
2022/03/01 06:44:02;;;;;;;15.05;3.60;;;;;;;18.60;37.62;98377.06;10508360;28;20041;-56
2022/03/01 06:49:22;;;;;;;12.18;3.92;;;;;;;18.63;37.56;98379.22;10500993;28;20454;-56
2022/03/01 06:54:42;;;;;;;7.35;3.72;;;;;;;18.67;37.47;98382.19;10511217;28;20052;-57
2022/03/01 07:00:01;;;;;;;11.55;3.75;;;;;;;18.72;37.53;98380.25;10515946;28;20056;-56
2022/03/01 07:05:21;;;;;;;7.60;3.65;;;;;;;18.78;37.75;98384.53;10523993;28;20933;-56
2022/03/01 07:10:41;;;;;;;8.02;3.70;;;;;;;18.83;37.72;98393.72;10512057;28;20043;-57
2022/03/01 07:16:00;;;;;;;8.00;3.65;;;;;;;18.90;37.66;98396.91;10519365;28;20032;-57
2022/03/01 07:21:21;;;;;;;9.20;3.72;;;;;;;18.94;37.48;98387.16;10512125;28;20488;-57
2022/03/01 07:26:40;;;;;;;8.20;3.58;;;;;;;19.00;37.41;98388.72;10520182;28;20660;-57
2022/03/01 07:32:00;;;;;;;7.68;3.58;;;;;;;19.06;37.33;98393.00;10494361;28;20056;-57
2022/03/01 07:37:20;;;;;;;7.50;3.38;;;;;;;19.12;37.40;98389.16;10542170;28;20064;-56
2022/03/01 07:42:40;;;;;;;11.05;3.42;;;;;;;19.19;37.53;98383.47;10542008;28;20506;-57
2022/03/01 07:48:01;;;;;;;7.68;3.80;;;;;;;19.26;37.21;98385.81;10530152;28;20043;-57
2022/03/01 07:53:21;;;;;;;8.50;3.63;;;;;;;19.31;37.16;98383.09;10530271;28;20064;-57
2022/03/01 07:58:40;;;;;;;7.40;3.65;;;;;;;19.36;37.12;98377.63;10522020;28;20059;-56
2022/03/01 08:03:59;;;;;;;7.78;3.22;;;;;;;19.42;37.35;98371.06;10520079;28;20495;-57
2022/03/01 08:09:19;;;;;;;6.55;3.58;;;;;;;19.49;37.12;98363.44;10515423;28;20066;-57
2022/03/01 08:14:39;;;;;;;6.72;3.10;;;;;;;19.55;37.04;98348.78;10536608;28;20048;-57
2022/03/01 08:19:58;;;;;;;6.38;3.30;;;;;;;19.61;36.82;98357.66;10530428;28;20439;-57
2022/03/01 08:25:18;;;;;;;7.60;3.40;;;;;;;19.67;36.97;98344.88;10494332;28;20046;-57
2022/03/01 08:30:37;;;;;;;6.20;3.17;;;;;;;19.74;36.80;98350.78;10534564;28;20146;-57
2022/03/01 08:35:57;;;;;;;6.70;2.92;;;;;;;19.79;36.65;98339.91;10508157;28;20487;-57
2022/03/01 08:41:16;;;;;;;5.57;2.88;;;;;;;19.84;36.52;98345.25;10527279;28;20060;-57
2022/03/01 08:46:36;;;;;;;5.97;2.97;;;;;;;19.90;36.59;98330.59;10513189;28;20060;-57
2022/03/01 08:51:55;;;;;;;4.60;2.95;;;;;;;19.98;36.33;98333.75;10516893;28;20048;-56
2022/03/01 08:57:15;;;;;;;5.15;3.20;;;;;;;20.02;36.30;98338.28;10525862;28;20063;-57
2022/03/01 09:02:35;;;;;;;4.97;3.10;;;;;;;20.07;36.23;98332.00;10515234;28;20048;-57
2022/03/01 09:07:55;;;;;;;3.83;2.28;;;;;;;20.09;36.45;98319.81;10512985;28;20064;-57
2022/03/01 09:13:14;;;;;;;4.35;2.65;;;;;;;20.11;36.44;98328.44;10499787;28;20050;-57
2022/03/01 09:18:35;;;;;;;12.73;6.50;;;;;;;20.20;34.86;98325.88;10511661;28;20059;-57
2022/03/01 09:23:54;;;;;;;18.63;13.15;;;;;;;20.27;33.26;98315.50;10535459;28;20138;-56
2022/03/01 09:29:15;;;;;;;19.00;14.70;;;;;;;20.30;32.27;98317.59;10503426;28;20067;-57
2022/03/01 09:34:35;;;;;;;17.85;12.70;;;;;;;20.29;31.96;98316.00;10529886;28;20040;-56
2022/03/01 09:39:54;;;;;;;14.90;11.60;;;;;;;20.28;30.92;98303.56;10513037;28;20118;-57
2022/03/01 09:45:14;;;;;;;14.15;10.75;;;;;;;20.28;30.56;98300.06;10510018;28;20396;-57
2022/03/01 09:50:33;;;;;;;15.15;11.25;;;;;;;20.27;30.87;98304.69;10512728;28;20048;-57
2022/03/01 09:55:54;;;;;;;15.45;10.35;;;;;;;20.32;31.13;98301.09;10520349;28;20047;-56
2022/03/01 10:01:16;;;;;;;14.55;9.02;;;;;;;20.34;30.65;98293.47;10535370;28;20044;-56
2022/03/01 10:06:41;;;;;;;11.15;8.00;;;;;;;20.36;30.33;98288.56;10523584;28;20047;-57
2022/03/01 10:12:04;;;;;;;9.50;7.38;;;;;;;20.39;29.99;98279.88;10530928;28;20044;-56
2022/03/01 10:17:23;;;;;;;10.13;8.05;;;;;;;20.38;29.63;98278.25;10529045;28;20047;-57
2022/03/01 10:22:44;;;;;;;8.65;7.75;;;;;;;20.39;29.38;98274.47;10502131;28;20080;-56
2022/03/01 10:28:04;;;;;;;9.23;7.25;;;;;;;20.38;28.75;98266.63;10495373;28;20037;-56
2022/03/01 10:33:23;;;;;;;10.18;7.07;;;;;;;20.38;28.61;98264.72;10514174;28;20056;-57
2022/03/01 10:38:56;;;;;;;9.40;7.20;;;;;;;20.39;28.14;98249.31;10514898;28;20496;-56
2022/03/01 10:44:23;;;;;;;8.65;7.28;;;;;;;20.38;27.93;98255.81;10527549;28;20048;-56
2022/03/01 10:49:42;;;;;;;8.38;6.70;;;;;;;20.37;27.79;98241.47;10529298;28;20422;-57
2022/03/01 10:55:03;;;;;;;8.38;6.60;;;;;;;20.37;27.49;98232.56;10518634;28;20505;-56
2022/03/01 11:00:23;;;;;;;8.10;6.35;;;;;;;20.35;27.26;98220.13;10536724;28;20048;-56
2022/03/01 11:05:43;;;;;;;8.13;6.35;;;;;;;20.33;26.82;98216.91;10522078;28;20059;-56
2022/03/01 11:11:06;;;;;;;7.97;6.47;;;;;;;20.33;27.10;98210.69;10521096;28;20052;-56
2022/03/01 11:16:33;;;;;;;6.80;6.10;;;;;;;20.32;27.23;98199.03;10516113;28;20140;-56
2022/03/01 11:21:53;;;;;;;6.70;5.72;;;;;;;20.33;26.52;98197.16;10544519;28;20422;-56
2022/03/01 11:27:18;;;;;;;6.65;5.90;;;;;;;20.33;26.81;98197.94;10495931;28;20052;-57
2022/03/01 11:32:45;;;;;;;6.53;5.55;;;;;;;20.33;26.36;98195.25;10527310;28;20044;-56
2022/03/01 11:38:12;;;;;;;6.18;5.28;;;;;;;20.34;25.97;98175.19;10500379;28;20411;-56
2022/03/01 11:43:36;;;;;;;6.90;5.55;;;;;;;20.34;26.15;98158.94;10538602;28;20086;-56
2022/03/01 11:48:56;;;;;;;8.23;5.22;;;;;;;20.36;26.03;98150.53;10541401;28;20424;-57
2022/03/01 11:54:28;;;;;;;6.10;5.13;;;;;;;20.38;26.28;98148.34;10522759;28;20097;-57
2022/03/01 11:59:49;;;;;;;5.72;4.75;;;;;;;20.39;25.68;98141.84;10550179;28;20055;-57
2022/03/01 12:05:09;;;;;;;6.85;5.43;;;;;;;20.42;26.15;98143.94;10523835;28;20053;-56
2022/03/01 12:10:29;;;;;;;5.60;5.05;;;;;;;20.44;26.12;98135.53;10523717;28;20064;-56
2022/03/01 12:15:57;;;;;;;5.82;4.93;;;;;;;20.47;25.84;98107.88;10520344;28;20055;-56
2022/03/01 12:21:17;;;;;;;5.75;5.15;;;;;;;20.51;25.88;98101.56;10522982;28;20092;-57
2022/03/01 12:26:51;;;;;;;6.40;4.82;;;;;;;20.52;25.48;98099.63;10528481;28;20052;-57
2022/03/01 12:32:12;;;;;;;5.43;4.93;;;;;;;20.54;26.40;98097.44;10524992;28;20047;-56
2022/03/01 12:37:32;;;;;;;5.80;5.03;;;;;;;20.55;26.42;98097.16;10505327;28;20043;-56
2022/03/01 12:42:58;;;;;;;5.93;5.07;;;;;;;20.56;26.45;98079.00;10514954;28;20056;-56
2022/03/01 12:48:18;;;;;;;6.20;5.07;;;;;;;20.59;26.57;98077.59;10523914;28;20434;-57
2022/03/01 12:53:51;;;;;;;5.95;4.60;;;;;;;20.60;26.32;98057.56;10524443;28;20048;-56
2022/03/01 12:59:16;;;;;;;6.18;4.75;;;;;;;20.64;26.78;98061.28;10528725;28;20423;-56
2022/03/01 13:04:37;;;;;;;7.43;4.63;;;;;;;20.68;26.72;98054.16;10528288;28;20044;-56
2022/03/01 13:10:02;;;;;;;6.57;5.22;;;;;;;20.68;26.87;98041.44;10511621;28;20074;-57
2022/03/01 13:15:23;;;;;;;6.63;5.50;;;;;;;20.72;26.97;98034.31;10514138;28;20594;-57
2022/03/01 13:20:42;;;;;;;5.55;4.40;;;;;;;20.73;26.60;98035.91;10521958;28;20048;-56
2022/03/01 13:26:01;;;;;;;5.68;4.63;;;;;;;20.75;26.82;98038.31;10518470;28;20419;-57
2022/03/01 13:31:23;;;;;;;5.95;5.00;;;;;;;20.78;26.78;98023.38;10526628;28;20052;-56
2022/03/01 13:36:43;;;;;;;6.57;5.20;;;;;;;20.83;26.77;98025.97;10510752;28;20063;-57
2022/03/01 13:42:04;;;;;;;6.53;5.00;;;;;;;20.86;26.59;98030.81;10509197;28;20040;-56
2022/03/01 13:47:29;;;;;;;6.03;5.25;;;;;;;20.88;26.61;98015.03;10512499;28;20056;-56
2022/03/01 13:52:50;;;;;;;7.07;4.80;;;;;;;20.88;26.18;98009.63;10512979;28;20055;-56
2022/03/01 13:58:15;;;;;;;5.03;4.55;;;;;;;20.86;26.08;98007.22;10500856;28;20503;-56
2022/03/01 14:03:35;;;;;;;6.45;4.80;;;;;;;20.88;25.78;97999.59;10534339;28;20052;-56
2022/03/01 14:08:55;;;;;;;5.32;4.75;;;;;;;20.89;25.61;98001.19;10498583;28;20075;-56
2022/03/01 14:14:15;;;;;;;5.07;4.57;;;;;;;20.91;25.22;98000.88;10501835;28;20040;-56
2022/03/01 14:19:35;;;;;;;6.55;4.38;;;;;;;20.89;25.00;97998.47;10520199;28;20483;-56
2022/03/01 14:24:59;;;;;;;4.88;4.32;;;;;;;20.92;25.12;97988.94;10502890;28;20524;-56
2022/03/01 14:30:18;;;;;;;5.45;4.68;;;;;;;20.93;24.96;97985.94;10499520;28;20552;-56
2022/03/01 14:35:38;;;;;;;5.13;4.50;;;;;;;20.97;24.69;97971.78;10505977;28;20063;-56
2022/03/01 14:40:59;;;;;;;5.38;4.65;;;;;;;20.98;24.54;97963.34;10522902;28;20741;-56
2022/03/01 14:46:20;;;;;;;7.32;4.47;;;;;;;20.98;24.39;97949.81;10497492;28;20068;-56
2022/03/01 14:51:41;;;;;;;6.25;5.32;;;;;;;20.98;24.56;97947.09;10502881;28;20059;-56
2022/03/01 14:57:01;;;;;;;5.43;4.82;;;;;;;21.00;24.27;97944.88;10498858;28;20509;-56
2022/03/01 15:02:22;;;;;;;7.05;5.07;;;;;;;21.01;24.22;97949.22;10531025;28;20051;-56
2022/03/01 15:07:42;;;;;;;6.20;5.43;;;;;;;21.03;23.93;97954.28;10498644;28;20113;-56
2022/03/01 15:13:02;;;;;;;6.97;5.90;;;;;;;21.03;23.05;97952.41;10501171;28;20055;-56
2022/03/01 15:18:22;;;;;;;9.80;6.43;;;;;;;20.65;21.15;97941.84;10518597;28;20089;-56
2022/03/01 15:23:42;;;;;;;8.02;4.90;;;;;;;20.68;22.96;97937.72;10522261;28;20040;-56
2022/03/01 15:29:03;;;;;;;6.18;4.88;;;;;;;20.78;24.52;97937.53;10513101;28;20376;-55
2022/03/01 15:34:22;;;;;;;10.95;4.78;;;;;;;20.82;25.03;97930.38;10518567;28;20043;-56
2022/03/01 15:39:44;;;;;;;8.63;4.82;;;;;;;20.83;25.46;97937.38;10519485;28;20098;-56
2022/03/01 15:45:06;;;;;;;8.40;4.90;;;;;;;20.85;26.19;97934.38;10523940;28;20056;-56
2022/03/01 15:50:26;;;;;;;6.63;4.72;;;;;;;20.85;26.35;97928.97;10510619;28;20055;-56
2022/03/01 15:55:47;;;;;;;5.95;4.47;;;;;;;20.87;26.65;97927.56;10516544;28;20465;-57
2022/03/01 16:01:07;;;;;;;6.75;4.65;;;;;;;20.88;27.11;97917.53;10520321;28;20053;-56
2022/03/01 16:06:26;;;;;;;4.75;4.05;;;;;;;20.87;27.18;97915.91;10530601;28;20435;-57
2022/03/01 16:11:45;;;;;;;5.68;4.22;;;;;;;20.87;27.42;97918.63;10520147;28;20060;-56
2022/03/01 16:17:06;;;;;;;7.07;4.30;;;;;;;20.88;27.46;97931.88;10513707;28;20044;-57
2022/03/01 16:22:25;;;;;;;5.88;4.25;;;;;;;20.87;27.50;97932.16;10517664;28;20078;-56
2022/03/01 16:27:45;;;;;;;8.32;4.40;;;;;;;20.87;27.57;97938.38;10502507;28;20063;-56
2022/03/01 16:33:05;;;;;;;8.40;4.38;;;;;;;20.86;27.77;97947.63;10494288;28;20040;-55
2022/03/01 16:38:24;;;;;;;10.88;4.05;;;;;;;20.86;28.16;97936.78;10504013;28;20110;-56
2022/03/01 16:43:44;;;;;;;5.45;4.03;;;;;;;20.86;28.26;97942.22;10510316;28;20037;-57
2022/03/01 16:49:04;;;;;;;7.78;4.22;;;;;;;20.84;28.38;97933.59;10509490;28;20105;-57
2022/03/01 16:54:24;;;;;;;7.35;4.30;;;;;;;20.82;28.39;97945.84;10521908;28;20113;-56
2022/03/01 16:59:46;;;;;;;7.80;4.15;;;;;;;20.80;28.77;97942.66;10532811;28;20044;-57
2022/03/01 17:05:07;;;;;;;6.43;4.07;;;;;;;20.80;29.20;97945.34;10516660;28;20048;-56
2022/03/01 17:10:27;;;;;;;7.68;4.10;;;;;;;20.77;29.80;97951.38;10528416;28;20045;-56
2022/03/01 17:15:46;;;;;;;7.07;4.13;;;;;;;20.74;30.08;97948.16;10507813;28;20043;-58
2022/03/01 17:21:06;;;;;;;7.15;4.38;;;;;;;20.73;30.42;97943.03;10515791;28;20056;-53
2022/03/01 17:26:26;;;;;;;5.13;3.53;;;;;;;20.73;30.76;97940.34;10529881;28;20483;-55
2022/03/01 17:31:45;;;;;;;5.18;3.97;;;;;;;20.73;30.88;97940.34;10529781;28;20044;-56
2022/03/01 17:37:07;;;;;;;5.60;3.83;;;;;;;20.72;31.21;97942.25;10529644;28;20642;-55
2022/03/01 17:42:26;;;;;;;7.80;3.90;;;;;;;20.69;31.45;97932.00;10524416;28;20108;-54
2022/03/01 17:47:47;;;;;;;5.05;3.58;;;;;;;20.69;31.61;97933.94;10536456;28;20040;-56
2022/03/01 17:53:07;;;;;;;4.40;3.75;;;;;;;20.67;31.67;97928.81;10527315;28;20055;-57
2022/03/01 17:58:27;;;;;;;4.95;3.72;;;;;;;20.67;31.82;97928.00;10520645;28;20044;-56
2022/03/01 18:03:47;;;;;;;4.10;3.70;;;;;;;20.66;31.93;97927.22;10507005;28;20086;-57
2022/03/01 18:09:07;;;;;;;6.57;3.92;;;;;;;20.66;32.25;97929.94;10529105;28;20070;-58
2022/03/01 18:14:26;;;;;;;4.25;3.38;;;;;;;20.64;32.50;97929.44;10517523;28;20041;-57
2022/03/01 18:19:46;;;;;;;5.47;3.40;;;;;;;20.64;32.66;97931.31;10532018;28;20052;-57
2022/03/01 18:25:06;;;;;;;6.70;3.70;;;;;;;20.61;33.03;97930.03;10512118;28;20518;-60
2022/03/01 18:30:28;;;;;;;5.78;2.95;;;;;;;20.59;33.24;97943.06;10515919;28;20048;-58
2022/03/01 18:35:48;;;;;;;5.57;3.22;;;;;;;20.57;33.78;97934.41;10530667;28;20051;-56
2022/03/01 18:41:08;;;;;;;4.68;3.20;;;;;;;20.57;33.78;97945.25;10511007;28;20056;-56
2022/03/01 18:46:30;;;;;;;4.30;3.60;;;;;;;20.55;34.13;97942.03;10528218;28;20070;-55
2022/03/01 18:51:49;;;;;;;7.03;3.30;;;;;;;20.53;34.30;97938.84;10524450;28;20124;-56
2022/03/01 18:57:08;;;;;;;4.95;3.55;;;;;;;20.52;34.62;97942.63;10532099;28;20105;-55
2022/03/01 19:02:28;;;;;;;5.32;3.28;;;;;;;20.51;34.80;97949.16;10520373;28;20048;-56
2022/03/01 19:07:48;;;;;;;4.38;3.38;;;;;;;20.50;34.79;97948.38;10540850;28;20052;-55
2022/03/01 19:13:08;;;;;;;4.97;3.50;;;;;;;20.48;35.11;97947.06;10543258;28;20055;-54
2022/03/01 19:18:28;;;;;;;5.80;3.40;;;;;;;20.48;35.07;97952.47;10540040;28;20595;-56
2022/03/01 19:23:48;;;;;;;4.07;3.22;;;;;;;20.44;35.14;97946.84;10539201;28;20097;-56
2022/03/01 19:29:07;;;;;;;5.72;3.28;;;;;;;20.43;35.17;97941.75;10543668;28;20101;-57
2022/03/01 19:34:26;;;;;;;3.47;3.05;;;;;;;20.42;35.38;97940.13;10545150;28;20434;-56
2022/03/01 19:39:46;;;;;;;5.03;3.45;;;;;;;20.40;35.44;97934.22;10524531;28;20056;-56
2022/03/01 19:45:11;;;;;;;3.70;3.15;;;;;;;20.39;35.52;97938.06;10537734;28;20414;-56
2022/03/01 19:50:31;;;;;;;4.72;3.33;;;;;;;20.35;34.62;97941.34;10530472;28;20051;-57
2022/03/01 19:55:50;;;;;;;4.13;3.40;;;;;;;20.35;35.45;97941.34;10530786;28;20040;-58
2022/03/01 20:01:10;;;;;;;5.20;3.72;;;;;;;20.33;35.84;97932.72;10530629;28;20059;-57
2022/03/01 20:06:29;;;;;;;9.10;4.53;;;;;;;20.32;36.14;97936.53;10530970;28;20052;-59
2022/03/01 20:11:49;;;;;;;7.22;4.20;;;;;;;20.33;36.72;97931.94;10524465;28;20060;-57
2022/03/01 20:17:09;;;;;;;6.88;4.10;;;;;;;20.30;36.95;97925.22;10524673;28;20635;-59
2022/03/01 20:22:30;;;;;;;8.73;4.50;;;;;;;20.30;37.32;97925.22;10529072;28;20056;-60
2022/03/01 20:27:49;;;;;;;13.10;5.32;;;;;;;20.29;36.87;97923.63;10527879;28;20052;-58
2022/03/01 20:33:09;;;;;;;10.85;5.28;;;;;;;20.28;37.49;97915.78;10521850;28;20588;-61
2022/03/01 20:38:28;;;;;;;10.55;5.15;;;;;;;20.27;37.40;97916.91;10525592;28;20055;-58
2022/03/01 20:43:49;;;;;;;11.35;4.78;;;;;;;20.25;37.82;97900.19;10524609;28;20053;-58
2022/03/01 20:49:09;;;;;;;10.43;5.20;;;;;;;20.22;37.58;97901.56;10534881;28;20056;-59
2022/03/01 20:54:29;;;;;;;9.32;5.15;;;;;;;20.21;37.77;97894.56;10525412;28;20048;-57
2022/03/01 20:59:49;;;;;;;10.27;5.30;;;;;;;20.20;37.73;97892.94;10524056;28;20047;-57
2022/03/01 21:05:09;;;;;;;10.90;5.25;;;;;;;20.19;37.86;97894.06;10510579;28;20045;-58
2022/03/01 21:10:29;;;;;;;11.88;5.35;;;;;;;20.18;37.92;97875.44;10541757;28;20056;-56
2022/03/01 21:15:49;;;;;;;10.10;5.22;;;;;;;20.16;38.17;97875.72;10523226;28;20089;-58
2022/03/01 21:21:09;;;;;;;8.50;4.53;;;;;;;20.14;38.18;97875.22;10512622;28;20059;-58
2022/03/01 21:26:29;;;;;;;7.32;4.88;;;;;;;20.12;38.08;97866.59;10504566;28;20055;-56
2022/03/01 21:31:49;;;;;;;9.18;5.30;;;;;;;20.10;38.56;97871.53;10518494;28;20048;-58
2022/03/01 21:37:08;;;;;;;6.85;4.60;;;;;;;20.11;38.67;97859.59;10530759;28;20051;-58
2022/03/01 21:42:28;;;;;;;7.07;4.72;;;;;;;20.09;38.69;97849.09;10530674;28;20763;-58
2022/03/01 21:47:48;;;;;;;9.10;4.80;;;;;;;20.09;38.66;97848.25;10531325;28;20537;-58
2022/03/01 21:53:09;;;;;;;8.68;4.53;;;;;;;20.07;38.50;97843.19;10512410;28;20098;-58
2022/03/01 21:58:28;;;;;;;6.70;4.30;;;;;;;20.05;38.49;97834.56;10525625;28;20063;-58
2022/03/01 22:03:48;;;;;;;6.78;4.63;;;;;;;20.05;38.63;97839.16;10519056;28;20640;-58
2022/03/01 22:09:07;;;;;;;6.13;4.60;;;;;;;20.03;38.62;97838.66;10531956;28;20101;-58
2022/03/01 22:14:27;;;;;;;9.15;4.85;;;;;;;20.01;38.30;97838.16;10522940;28;20049;-58
2022/03/01 22:19:46;;;;;;;6.20;4.30;;;;;;;20.00;38.45;97831.16;10535876;28;20636;-58
2022/03/01 22:25:06;;;;;;;6.03;4.40;;;;;;;19.98;38.34;97831.44;10530550;28;20048;-58
2022/03/01 22:30:25;;;;;;;6.47;4.50;;;;;;;19.95;38.25;97819.34;10529430;28;20060;-58
2022/03/01 22:35:45;;;;;;;6.72;4.25;;;;;;;19.96;38.27;97822.84;10528843;28;20070;-58
2022/03/01 22:41:04;;;;;;;6.65;4.70;;;;;;;19.93;38.32;97820.72;10489713;28;20503;-58
2022/03/01 22:46:24;;;;;;;5.55;4.43;;;;;;;19.92;38.10;97817.22;10482002;28;20051;-58
2022/03/01 22:51:44;;;;;;;6.88;4.45;;;;;;;19.89;38.11;97812.41;10474549;28;20044;-58
2022/03/01 22:57:04;;;;;;;6.00;4.43;;;;;;;19.89;37.98;97817.03;10465866;28;20053;-58
2022/03/01 23:02:23;;;;;;;6.10;4.25;;;;;;;19.86;37.79;97815.75;10459353;28;20411;-60
2022/03/01 23:07:43;;;;;;;5.97;4.68;;;;;;;19.84;37.76;97817.94;10459781;28;20061;-58
2022/03/01 23:13:04;;;;;;;7.30;4.70;;;;;;;19.82;37.67;97812.03;10468926;28;20048;-58
2022/03/01 23:18:23;;;;;;;5.22;4.25;;;;;;;19.82;37.77;97816.66;10475312;28;20087;-58
2022/03/01 23:23:43;;;;;;;5.60;4.13;;;;;;;19.79;37.46;97809.91;10454513;28;20060;-58
2022/03/01 23:29:03;;;;;;;4.90;3.70;;;;;;;19.77;37.66;97808.63;10475181;28;20041;-58
2022/03/01 23:34:22;;;;;;;5.82;4.28;;;;;;;19.75;37.54;97801.59;10461375;28;20057;-58
2022/03/01 23:39:43;;;;;;;5.47;4.20;;;;;;;19.75;37.37;97798.09;10470819;28;20056;-57
2022/03/01 23:45:03;;;;;;;5.68;4.10;;;;;;;19.72;37.46;97785.22;10476477;28;20052;-58
2022/03/01 23:50:23;;;;;;;6.00;4.15;;;;;;;19.71;37.35;97791.66;10484441;28;20040;-58
2022/03/01 23:55:43;;;;;;;5.43;4.13;;;;;;;19.69;37.40;97789.25;10473922;28;20485;-57
